Terminal Aerodrome Forecast
Issued by NWS

Home | Current Version | Previous Version | Graphics & Text | Print | Product List | Glossary On
Versions: 1 2 3 4 5 6 7 8 9 10 11 12 13 14 15 16 17
080
FTUS42 KMHX 222340
TAFISO
TAF
KISO 222340Z 2300/2324 21005KT P6SM BKN120
     FM230900 21006KT P6SM OVC015
     FM231200 22012KT P6SM BKN050
     FM232300 20011KT P6SM SCT150
      AMD LTD TO CLD VIS AND WIND=

USA.gov is the U.S. government's official web portal to all federal, state and local government web resources and services.